OICS  Sanandaj  Airport

Iran

Add Bookmark
Status IATA
Operational SDG
Latitude Longitude
35° 14' 45" N 47° 0' 33" E
35.245899 47.009201
Local (DST + 5) UTC (GMT + 4)
Mar 30, 2015 01:51 Mar 30, 2015 09:21
Sunrise-Sunset Local UTC
Begin Civil Twilight 06:44 02:14
Sunrise 07:10 02:40
Sunset 07:42 15:12
End Civil Twilight 08:08 15:38

Current Weather

METAR Observed VFR
OICS 300900Z 20004KT 9999 FEW025 SCT035TCU BKN100 13/09 Q1010 RESHRA Mon, Mar 30, 2015 @ 09:00 UTC
(21 Minutes ago)
Visual Flight Rules
Wind Visibility Clouds Conditions
200° at 4 knots (7 kph) 10 km or more
  • Few at 2,500' AGL
  • Scattered at 3,500' AGL
  • Broken at 10,000' AGL
  • No significant weather
Temperatures Readings Precipitation
Current Temp 13°C (55°F)
Dewpoint 9°C (48°F)
Humidity 77%
Altimeter 29.82"Hg
Sea Level Pressure 1010mb
Field Elevation 4504.59'
None Recorded

Additional weather within a 185.2km radius of OICS

Map ICAO Location
OICC 100.9km S (172°)
OIGK 107.4km S (175°)
OIHH 146.5km E (106°)
ORSU 157.2km W (283°)

24 Hour Weather History

Loading
-

24 Hour Weather Graphs

Loading
-

CheckWX.com is intended as a tool to help pilots better visualize weather data. It is not intended as a substitute for an official weather briefing obtained from a Flight Service Station. CheckWX.com does not meet the FAA requirements for an official pre-flight weather briefing. Therefore, it's important that pilots still call and obtain an official FSS pre-flight weather briefing.